KBIF

Biggs AAF (Fort Bliss) Airport

Fort Bliss/El Paso/, Texas, USA
METAR KBIF 180244Z AUTO 29004KT 6SM -RA BR SCT005 OVC049 08/06 A3007 RMK AO2 SLP166 $
Observed Flight Rules
Dec-18 @ 02:44 UTC (24 minutes ago) Visual Flight Rules
Wind Visibility Clouds Conditions
290° at 4 knots 6 miles
  • Scattered at 500' AGL
  • Overcast at 4,900' AGL
  • Light Rain
  • Mist
Temperatures Readings
Current 8°C / 46°F
Dewpoint 6°C / 43°F
Humidity 87%
Altimeter 30.07" Hg
Pressure 1016.6 hPa
Elevation 1203
METAR KBIF 180244Z AUTO 29004KT 6SM -RA BR SCT005 OVC049 08/06 A3007 RMK AO2 SLP166 $
Observed Flight Rules
Dec-18 @ 02:44 UTC
(24 minutes ago)
VFR
Wind Visibility
290° at 4 knots 6 miles
Clouds
  • Scattered at 500' AGL
  • Overcast at 4,900' AGL
Conditions
  • Light Rain
  • Mist
Temperature Dewpoint
8°C / 46°F 6°C / 43°F
Humidity Altimeter Pressure
87% 30.07" Hg 1016.6 hPa